Home

Weather

KSLC Current Conditions

KSLC 170354Z 35004KT 8SM SCT060 BKN080 01/M01 A3013 RMK AO2 SLP214 T00111006

KSLC Aviation Forecast

TAF AMD KSLC 170238Z 1703/1806 30006KT 6SM BR SCT040 BKN080 FM170400 17007KT P6SM SCT040 BKN080 FM171300 17018G28KT P6SM VCSH SCT020 BKN040 FM171800 16015G25KT P6SM -RA SCT010 BKN035


34° F
Overcast
Overcast

Chance of Rain
Wednesday
Chance of Rain
High 49°/Low 40°
40%
Rain
Thursday
Rain
High 44°/Low 33°
90%
Snow Showers
Friday
Snow Showers
High 37°/Low 28°
60%
Overcast
Saturday
Overcast
High 39°/Low 31°
20%
Overcast
Sunday
Overcast
High 43°/Low 32°
10%
Snow
Monday
Snow
High 35°/Low 23°
90%